sensor_id;sensor_type;location;lat;lon;timestamp;temperature;humidity
40257;DHT22;25977;45.462;9.210;2023-03-11T00:02:06;15.50;53.90
40257;DHT22;25977;45.462;9.210;2023-03-11T00:04:31;15.60;54.00
40257;DHT22;25977;45.462;9.210;2023-03-11T00:06:57;15.50;53.90
40257;DHT22;25977;45.462;9.210;2023-03-11T00:09:23;15.60;53.90
40257;DHT22;25977;45.462;9.210;2023-03-11T00:11:48;15.50;53.80
40257;DHT22;25977;45.462;9.210;2023-03-11T00:14:14;15.50;53.70
40257;DHT22;25977;45.462;9.210;2023-03-11T00:16:40;15.50;54.00
40257;DHT22;25977;45.462;9.210;2023-03-11T00:19:05;15.50;54.30
40257;DHT22;25977;45.462;9.210;2023-03-11T00:21:31;15.50;54.60
40257;DHT22;25977;45.462;9.210;2023-03-11T00:23:58;15.50;54.90
40257;DHT22;25977;45.462;9.210;2023-03-11T00:26:26;15.40;55.00
40257;DHT22;25977;45.462;9.210;2023-03-11T00:28:52;15.40;55.00
40257;DHT22;25977;45.462;9.210;2023-03-11T00:31:21;15.40;55.10
40257;DHT22;25977;45.462;9.210;2023-03-11T00:33:47;15.40;54.90
40257;DHT22;25977;45.462;9.210;2023-03-11T00:36:28;15.50;55.00
40257;DHT22;25977;45.462;9.210;2023-03-11T00:38:56;15.50;55.10
40257;DHT22;25977;45.462;9.210;2023-03-11T00:41:22;15.40;54.90
40257;DHT22;25977;45.462;9.210;2023-03-11T00:43:48;15.40;54.70
40257;DHT22;25977;45.462;9.210;2023-03-11T00:46:14;15.40;54.70
40257;DHT22;25977;45.462;9.210;2023-03-11T00:48:40;15.40;54.70
40257;DHT22;25977;45.462;9.210;2023-03-11T00:51:06;15.40;54.60
40257;DHT22;25977;45.462;9.210;2023-03-11T00:53:33;15.40;54.60
40257;DHT22;25977;45.462;9.210;2023-03-11T00:55:58;15.40;55.00
40257;DHT22;25977;45.462;9.210;2023-03-11T00:58:30;15.40;54.40
40257;DHT22;25977;45.462;9.210;2023-03-11T01:00:57;15.40;54.50
40257;DHT22;25977;45.462;9.210;2023-03-11T01:03:23;15.40;54.10
40257;DHT22;25977;45.462;9.210;2023-03-11T01:05:48;15.40;54.20
40257;DHT22;25977;45.462;9.210;2023-03-11T01:08:14;15.40;54.20
40257;DHT22;25977;45.462;9.210;2023-03-11T01:10:40;15.40;54.30
40257;DHT22;25977;45.462;9.210;2023-03-11T01:13:05;15.40;54.50
40257;DHT22;25977;45.462;9.210;2023-03-11T01:15:34;15.40;54.60
40257;DHT22;25977;45.462;9.210;2023-03-11T01:18:01;15.40;54.80
40257;DHT22;25977;45.462;9.210;2023-03-11T01:20:28;15.40;54.90
40257;DHT22;25977;45.462;9.210;2023-03-11T01:22:53;15.30;55.10
40257;DHT22;25977;45.462;9.210;2023-03-11T01:25:22;15.30;55.20
40257;DHT22;25977;45.462;9.210;2023-03-11T01:27:49;15.30;55.30
40257;DHT22;25977;45.462;9.210;2023-03-11T01:30:18;15.20;55.30
40257;DHT22;25977;45.462;9.210;2023-03-11T01:32:45;15.30;55.40
40257;DHT22;25977;45.462;9.210;2023-03-11T01:35:13;15.20;55.30
40257;DHT22;25977;45.462;9.210;2023-03-11T01:40:46;15.10;55.60
40257;DHT22;25977;45.462;9.210;2023-03-11T01:46:26;15.10;55.70
40257;DHT22;25977;45.462;9.210;2023-03-11T01:48:57;15.00;55.70
40257;DHT22;25977;45.462;9.210;2023-03-11T01:51:29;15.10;55.70
40257;DHT22;25977;45.462;9.210;2023-03-11T01:53:59;15.10;55.70
40257;DHT22;25977;45.462;9.210;2023-03-11T01:56:26;15.00;55.70
40257;DHT22;25977;45.462;9.210;2023-03-11T01:58:53;15.10;55.60
40257;DHT22;25977;45.462;9.210;2023-03-11T02:01:20;15.00;55.70
40257;DHT22;25977;45.462;9.210;2023-03-11T02:03:47;15.00;55.70
40257;DHT22;25977;45.462;9.210;2023-03-11T02:06:17;15.00;55.50
40257;DHT22;25977;45.462;9.210;2023-03-11T02:08:44;15.10;55.60
40257;DHT22;25977;45.462;9.210;2023-03-11T02:11:16;15.10;55.50
40257;DHT22;25977;45.462;9.210;2023-03-11T02:13:42;15.00;55.40
40257;DHT22;25977;45.462;9.210;2023-03-11T02:16:09;15.00;55.40
40257;DHT22;25977;45.462;9.210;2023-03-11T02:18:36;15.10;55.40
40257;DHT22;25977;45.462;9.210;2023-03-11T02:21:07;15.00;55.40
40257;DHT22;25977;45.462;9.210;2023-03-11T02:23:51;15.00;55.40
40257;DHT22;25977;45.462;9.210;2023-03-11T02:29:10;15.00;55.40
40257;DHT22;25977;45.462;9.210;2023-03-11T02:31:37;15.10;55.40
40257;DHT22;25977;45.462;9.210;2023-03-11T02:34:08;15.00;55.90
40257;DHT22;25977;45.462;9.210;2023-03-11T02:36:39;15.00;56.00
40257;DHT22;25977;45.462;9.210;2023-03-11T02:39:08;15.00;55.30
40257;DHT22;25977;45.462;9.210;2023-03-11T02:41:41;15.00;55.20
40257;DHT22;25977;45.462;9.210;2023-03-11T02:44:10;15.00;55.40
40257;DHT22;25977;45.462;9.210;2023-03-11T02:46:39;15.00;55.10
40257;DHT22;25977;45.462;9.210;2023-03-11T02:49:09;15.00;55.20
40257;DHT22;25977;45.462;9.210;2023-03-11T02:51:35;15.00;55.20
40257;DHT22;25977;45.462;9.210;2023-03-11T02:54:03;15.00;55.10
40257;DHT22;25977;45.462;9.210;2023-03-11T02:56:30;15.00;55.30
40257;DHT22;25977;45.462;9.210;2023-03-11T02:58:58;15.10;55.30
40257;DHT22;25977;45.462;9.210;2023-03-11T03:01:24;15.10;55.40
40257;DHT22;25977;45.462;9.210;2023-03-11T03:03:50;15.00;55.30
40257;DHT22;25977;45.462;9.210;2023-03-11T03:06:16;15.00;55.00
40257;DHT22;25977;45.462;9.210;2023-03-11T03:08:42;15.00;55.20
40257;DHT22;25977;45.462;9.210;2023-03-11T03:11:08;15.00;55.10
40257;DHT22;25977;45.462;9.210;2023-03-11T03:13:34;15.00;55.10
40257;DHT22;25977;45.462;9.210;2023-03-11T03:16:01;14.90;55.20
40257;DHT22;25977;45.462;9.210;2023-03-11T03:18:27;15.00;55.40
40257;DHT22;25977;45.462;9.210;2023-03-11T03:20:53;14.90;55.40
40257;DHT22;25977;45.462;9.210;2023-03-11T03:23:19;14.90;55.40
40257;DHT22;25977;45.462;9.210;2023-03-11T03:25:45;14.90;55.60
40257;DHT22;25977;45.462;9.210;2023-03-11T03:28:12;14.90;55.60
40257;DHT22;25977;45.462;9.210;2023-03-11T03:30:41;14.90;55.60
40257;DHT22;25977;45.462;9.210;2023-03-11T03:33:07;14.80;55.70
40257;DHT22;25977;45.462;9.210;2023-03-11T03:35:34;14.80;55.70
40257;DHT22;25977;45.462;9.210;2023-03-11T03:38:14;14.80;55.80
40257;DHT22;25977;45.462;9.210;2023-03-11T03:40:45;14.70;55.70
40257;DHT22;25977;45.462;9.210;2023-03-11T03:43:13;14.70;56.00
40257;DHT22;25977;45.462;9.210;2023-03-11T03:45:42;14.70;55.90
40257;DHT22;25977;45.462;9.210;2023-03-11T03:48:07;14.80;55.80
40257;DHT22;25977;45.462;9.210;2023-03-11T03:50:39;14.80;55.80
40257;DHT22;25977;45.462;9.210;2023-03-11T03:53:05;14.70;55.70
40257;DHT22;25977;45.462;9.210;2023-03-11T03:55:31;14.70;55.80
40257;DHT22;25977;45.462;9.210;2023-03-11T03:57:58;14.70;55.90
40257;DHT22;25977;45.462;9.210;2023-03-11T04:00:27;14.60;56.00
40257;DHT22;25977;45.462;9.210;2023-03-11T04:02:58;14.60;56.20
40257;DHT22;25977;45.462;9.210;2023-03-11T04:05:33;14.60;56.10
40257;DHT22;25977;45.462;9.210;2023-03-11T04:07:58;14.60;56.10
40257;DHT22;25977;45.462;9.210;2023-03-11T04:10:26;14.70;56.20
40257;DHT22;25977;45.462;9.210;2023-03-11T04:12:51;14.70;56.10
40257;DHT22;25977;45.462;9.210;2023-03-11T04:15:18;14.70;56.20
40257;DHT22;25977;45.462;9.210;2023-03-11T04:17:43;14.70;55.90
40257;DHT22;25977;45.462;9.210;2023-03-11T04:20:10;14.70;56.00
40257;DHT22;25977;45.462;9.210;2023-03-11T04:22:36;14.70;55.90
40257;DHT22;25977;45.462;9.210;2023-03-11T04:25:03;14.70;55.90
40257;DHT22;25977;45.462;9.210;2023-03-11T04:27:30;14.70;55.90
40257;DHT22;25977;45.462;9.210;2023-03-11T04:29:57;14.70;55.90
40257;DHT22;25977;45.462;9.210;2023-03-11T04:32:22;14.70;55.90
40257;DHT22;25977;45.462;9.210;2023-03-11T04:34:48;14.70;55.90
40257;DHT22;25977;45.462;9.210;2023-03-11T04:37:15;14.70;55.90
40257;DHT22;25977;45.462;9.210;2023-03-11T04:39:41;14.70;55.90
40257;DHT22;25977;45.462;9.210;2023-03-11T04:42:07;14.70;55.80
40257;DHT22;25977;45.462;9.210;2023-03-11T04:44:34;14.60;55.80
40257;DHT22;25977;45.462;9.210;2023-03-11T04:47:01;14.70;55.80
40257;DHT22;25977;45.462;9.210;2023-03-11T04:49:27;14.70;55.70
40257;DHT22;25977;45.462;9.210;2023-03-11T04:51:53;14.70;55.70
40257;DHT22;25977;45.462;9.210;2023-03-11T04:54:21;14.70;55.60
40257;DHT22;25977;45.462;9.210;2023-03-11T04:56:47;14.60;55.60
40257;DHT22;25977;45.462;9.210;2023-03-11T04:59:13;14.70;55.70
40257;DHT22;25977;45.462;9.210;2023-03-11T05:01:40;14.60;55.70
40257;DHT22;25977;45.462;9.210;2023-03-11T05:04:07;14.60;55.70
40257;DHT22;25977;45.462;9.210;2023-03-11T05:06:34;14.80;55.80
40257;DHT22;25977;45.462;9.210;2023-03-11T05:09:02;14.60;55.70
40257;DHT22;25977;45.462;9.210;2023-03-11T05:11:33;14.60;55.70
40257;DHT22;25977;45.462;9.210;2023-03-11T05:13:59;14.60;55.80
40257;DHT22;25977;45.462;9.210;2023-03-11T05:16:24;14.60;55.80
40257;DHT22;25977;45.462;9.210;2023-03-11T05:18:50;14.60;55.90
40257;DHT22;25977;45.462;9.210;2023-03-11T05:21:16;14.60;55.90
40257;DHT22;25977;45.462;9.210;2023-03-11T05:23:42;14.60;56.00
40257;DHT22;25977;45.462;9.210;2023-03-11T05:26:10;14.60;55.90
40257;DHT22;25977;45.462;9.210;2023-03-11T05:28:38;14.60;56.00
40257;DHT22;25977;45.462;9.210;2023-03-11T05:31:09;14.60;55.90
40257;DHT22;25977;45.462;9.210;2023-03-11T05:33:36;14.60;55.80
40257;DHT22;25977;45.462;9.210;2023-03-11T05:36:05;14.60;55.90
40257;DHT22;25977;45.462;9.210;2023-03-11T05:38:31;14.60;55.90
40257;DHT22;25977;45.462;9.210;2023-03-11T05:40:57;14.60;55.70
40257;DHT22;25977;45.462;9.210;2023-03-11T05:43:23;14.60;55.80
40257;DHT22;25977;45.462;9.210;2023-03-11T05:45:53;14.60;55.70
40257;DHT22;25977;45.462;9.210;2023-03-11T05:48:19;14.60;55.60
40257;DHT22;25977;45.462;9.210;2023-03-11T05:50:45;14.60;55.70
40257;DHT22;25977;45.462;9.210;2023-03-11T05:53:12;14.60;55.80
40257;DHT22;25977;45.462;9.210;2023-03-11T05:55:37;14.50;55.70
40257;DHT22;25977;45.462;9.210;2023-03-11T05:58:03;14.50;56.00
40257;DHT22;25977;45.462;9.210;2023-03-11T06:00:30;14.50;56.00
40257;DHT22;25977;45.462;9.210;2023-03-11T06:02:58;14.50;56.00
40257;DHT22;25977;45.462;9.210;2023-03-11T06:05:24;14.40;55.90
40257;DHT22;25977;45.462;9.210;2023-03-11T06:07:51;14.40;55.90
40257;DHT22;25977;45.462;9.210;2023-03-11T06:10:18;14.50;55.90
40257;DHT22;25977;45.462;9.210;2023-03-11T06:12:45;14.50;55.90
40257;DHT22;25977;45.462;9.210;2023-03-11T06:15:23;14.40;55.80
40257;DHT22;25977;45.462;9.210;2023-03-11T06:17:51;14.50;55.90
40257;DHT22;25977;45.462;9.210;2023-03-11T06:20:17;14.50;56.10
40257;DHT22;25977;45.462;9.210;2023-03-11T06:22:42;14.50;56.20
40257;DHT22;25977;45.462;9.210;2023-03-11T06:25:09;14.50;56.20
40257;DHT22;25977;45.462;9.210;2023-03-11T06:27:36;14.50;56.10
40257;DHT22;25977;45.462;9.210;2023-03-11T06:30:03;14.50;56.00
40257;DHT22;25977;45.462;9.210;2023-03-11T06:32:34;14.50;56.10
40257;DHT22;25977;45.462;9.210;2023-03-11T06:35:02;14.50;56.00
40257;DHT22;25977;45.462;9.210;2023-03-11T06:37:28;14.60;55.90
40257;DHT22;25977;45.462;9.210;2023-03-11T06:39:55;14.60;55.80
40257;DHT22;25977;45.462;9.210;2023-03-11T06:42:23;14.70;55.70
40257;DHT22;25977;45.462;9.210;2023-03-11T06:44:49;14.70;55.50
40257;DHT22;25977;45.462;9.210;2023-03-11T06:47:15;14.70;55.60
40257;DHT22;25977;45.462;9.210;2023-03-11T06:49:41;14.80;55.40
40257;DHT22;25977;45.462;9.210;2023-03-11T06:52:08;14.70;55.20
40257;DHT22;25977;45.462;9.210;2023-03-11T06:54:34;14.70;55.40
40257;DHT22;25977;45.462;9.210;2023-03-11T06:57:00;14.70;55.40
40257;DHT22;25977;45.462;9.210;2023-03-11T06:59:27;14.80;55.60
40257;DHT22;25977;45.462;9.210;2023-03-11T07:01:54;14.80;55.50
40257;DHT22;25977;45.462;9.210;2023-03-11T07:04:20;14.80;55.50
40257;DHT22;25977;45.462;9.210;2023-03-11T07:06:47;14.90;55.40
40257;DHT22;25977;45.462;9.210;2023-03-11T07:09:17;15.00;55.10
40257;DHT22;25977;45.462;9.210;2023-03-11T07:11:45;15.60;54.90
40257;DHT22;25977;45.462;9.210;2023-03-11T07:14:15;16.50;53.10
40257;DHT22;25977;45.462;9.210;2023-03-11T07:16:45;17.20;52.20
40257;DHT22;25977;45.462;9.210;2023-03-11T07:19:25;17.60;51.40
40257;DHT22;25977;45.462;9.210;2023-03-11T07:21:51;17.60;51.10
40257;DHT22;25977;45.462;9.210;2023-03-11T07:24:17;17.40;51.10
40257;DHT22;25977;45.462;9.210;2023-03-11T07:26:42;17.20;51.40
40257;DHT22;25977;45.462;9.210;2023-03-11T07:29:08;17.00;51.70
40257;DHT22;25977;45.462;9.210;2023-03-11T07:31:35;17.00;51.90
40257;DHT22;25977;45.462;9.210;2023-03-11T07:34:04;16.80;52.10
40257;DHT22;25977;45.462;9.210;2023-03-11T07:36:30;16.70;52.30
40257;DHT22;25977;45.462;9.210;2023-03-11T07:38:59;16.70;52.40
40257;DHT22;25977;45.462;9.210;2023-03-11T07:41:28;16.60;52.40
40257;DHT22;25977;45.462;9.210;2023-03-11T07:43:55;16.60;52.50
40257;DHT22;25977;45.462;9.210;2023-03-11T07:46:23;16.60;52.40
40257;DHT22;25977;45.462;9.210;2023-03-11T07:48:50;16.80;52.80
40257;DHT22;25977;45.462;9.210;2023-03-11T07:51:22;17.40;52.40
40257;DHT22;25977;45.462;9.210;2023-03-11T07:53:48;18.30;51.30
40257;DHT22;25977;45.462;9.210;2023-03-11T07:56:16;19.00;50.70
40257;DHT22;25977;45.462;9.210;2023-03-11T07:58:43;19.70;49.30
40257;DHT22;25977;45.462;9.210;2023-03-11T08:01:14;20.10;48.80
40257;DHT22;25977;45.462;9.210;2023-03-11T08:03:42;20.30;49.40
40257;DHT22;25977;45.462;9.210;2023-03-11T08:06:16;20.40;48.70
40257;DHT22;25977;45.462;9.210;2023-03-11T08:08:42;20.20;48.90
40257;DHT22;25977;45.462;9.210;2023-03-11T08:11:08;20.00;48.40
40257;DHT22;25977;45.462;9.210;2023-03-11T08:13:34;19.80;49.00
40257;DHT22;25977;45.462;9.210;2023-03-11T08:16:05;19.60;48.60
40257;DHT22;25977;45.462;9.210;2023-03-11T08:18:31;19.50;49.30
40257;DHT22;25977;45.462;9.210;2023-03-11T08:20:57;19.40;48.70
40257;DHT22;25977;45.462;9.210;2023-03-11T08:23:23;19.20;48.50
40257;DHT22;25977;45.462;9.210;2023-03-11T08:25:49;19.10;49.20
40257;DHT22;25977;45.462;9.210;2023-03-11T08:28:15;19.00;49.00
40257;DHT22;25977;45.462;9.210;2023-03-11T08:30:40;18.90;48.80
40257;DHT22;25977;45.462;9.210;2023-03-11T08:33:06;19.00;49.40
40257;DHT22;25977;45.462;9.210;2023-03-11T08:35:32;19.10;49.60
40257;DHT22;25977;45.462;9.210;2023-03-11T08:37:58;19.30;49.50
40257;DHT22;25977;45.462;9.210;2023-03-11T08:40:23;19.40;49.30
40257;DHT22;25977;45.462;9.210;2023-03-11T08:42:49;19.60;49.10
40257;DHT22;25977;45.462;9.210;2023-03-11T08:45:15;19.80;48.90
40257;DHT22;25977;45.462;9.210;2023-03-11T08:47:41;19.80;48.40
40257;DHT22;25977;45.462;9.210;2023-03-11T08:50:13;19.70;47.70
40257;DHT22;25977;45.462;9.210;2023-03-11T08:52:39;19.60;48.70
40257;DHT22;25977;45.462;9.210;2023-03-11T08:55:06;19.70;48.60
40257;DHT22;25977;45.462;9.210;2023-03-11T08:57:33;19.80;49.30
40257;DHT22;25977;45.462;9.210;2023-03-11T08:59:59;19.90;48.70
40257;DHT22;25977;45.462;9.210;2023-03-11T09:02:25;19.90;48.00
40257;DHT22;25977;45.462;9.210;2023-03-11T09:04:51;19.80;47.70
40257;DHT22;25977;45.462;9.210;2023-03-11T09:07:17;19.80;48.20
40257;DHT22;25977;45.462;9.210;2023-03-11T09:09:43;19.80;48.60
40257;DHT22;25977;45.462;9.210;2023-03-11T09:12:09;19.90;49.20
40257;DHT22;25977;45.462;9.210;2023-03-11T09:14:39;19.90;47.30
40257;DHT22;25977;45.462;9.210;2023-03-11T09:17:06;19.90;47.50
40257;DHT22;25977;45.462;9.210;2023-03-11T09:19:32;20.00;47.50
40257;DHT22;25977;45.462;9.210;2023-03-11T09:22:02;20.00;47.70
40257;DHT22;25977;45.462;9.210;2023-03-11T09:24:28;20.20;48.40
40257;DHT22;25977;45.462;9.210;2023-03-11T09:26:54;20.40;48.40
40257;DHT22;25977;45.462;9.210;2023-03-11T09:29:20;20.50;47.10
40257;DHT22;25977;45.462;9.210;2023-03-11T09:31:45;20.50;47.10
40257;DHT22;25977;45.462;9.210;2023-03-11T09:34:11;20.70;47.30
40257;DHT22;25977;45.462;9.210;2023-03-11T09:36:40;20.80;47.50
40257;DHT22;25977;45.462;9.210;2023-03-11T09:39:06;21.00;46.80
40257;DHT22;25977;45.462;9.210;2023-03-11T09:44:20;21.10;46.70
40257;DHT22;25977;45.462;9.210;2023-03-11T09:54:55;20.90;45.20
40257;DHT22;25977;45.462;9.210;2023-03-11T09:57:25;20.80;45.40
40257;DHT22;25977;45.462;9.210;2023-03-11T09:59:53;20.80;44.80
40257;DHT22;25977;45.462;9.210;2023-03-11T10:02:22;20.80;46.20
40257;DHT22;25977;45.462;9.210;2023-03-11T10:07:19;21.00;45.10
40257;DHT22;25977;45.462;9.210;2023-03-11T10:09:51;21.00;44.70
40257;DHT22;25977;45.462;9.210;2023-03-11T10:15:18;21.00;45.20
40257;DHT22;25977;45.462;9.210;2023-03-11T10:18:14;21.10;44.90
40257;DHT22;25977;45.462;9.210;2023-03-11T10:26:55;21.30;44.60
40257;DHT22;25977;45.462;9.210;2023-03-11T10:29:29;21.30;43.90
40257;DHT22;25977;45.462;9.210;2023-03-11T10:37:25;21.40;44.30
40257;DHT22;25977;45.462;9.210;2023-03-11T10:39:51;21.50;44.20
40257;DHT22;25977;45.462;9.210;2023-03-11T10:42:24;21.50;44.70
40257;DHT22;25977;45.462;9.210;2023-03-11T10:44:52;21.60;44.60
40257;DHT22;25977;45.462;9.210;2023-03-11T10:47:20;21.70;44.40
40257;DHT22;25977;45.462;9.210;2023-03-11T10:49:47;21.70;43.60
40257;DHT22;25977;45.462;9.210;2023-03-11T10:52:14;21.70;43.60
40257;DHT22;25977;45.462;9.210;2023-03-11T10:54:43;21.70;44.10
40257;DHT22;25977;45.462;9.210;2023-03-11T10:57:23;21.70;44.50
40257;DHT22;25977;45.462;9.210;2023-03-11T10:59:52;21.70;43.70
40257;DHT22;25977;45.462;9.210;2023-03-11T11:02:31;21.80;44.30
40257;DHT22;25977;45.462;9.210;2023-03-11T11:05:27;21.80;43.90
40257;DHT22;25977;45.462;9.210;2023-03-11T11:08:16;21.90;43.80
40257;DHT22;25977;45.462;9.210;2023-03-11T11:10:54;21.90;43.30
40257;DHT22;25977;45.462;9.210;2023-03-11T11:13:23;21.80;43.10
40257;DHT22;25977;45.462;9.210;2023-03-11T11:16:31;21.90;42.50
40257;DHT22;25977;45.462;9.210;2023-03-11T11:19:00;21.80;42.60
40257;DHT22;25977;45.462;9.210;2023-03-11T11:21:31;21.80;43.20
40257;DHT22;25977;45.462;9.210;2023-03-11T11:24:22;21.90;43.60
40257;DHT22;25977;45.462;9.210;2023-03-11T11:29:36;21.90;44.20
40257;DHT22;25977;45.462;9.210;2023-03-11T11:34:40;21.90;43.60
40257;DHT22;25977;45.462;9.210;2023-03-11T11:37:10;21.90;43.70
40257;DHT22;25977;45.462;9.210;2023-03-11T11:39:49;21.80;43.80
40257;DHT22;25977;45.462;9.210;2023-03-11T11:42:18;21.70;43.80
40257;DHT22;25977;45.462;9.210;2023-03-11T11:44:48;21.70;44.40
40257;DHT22;25977;45.462;9.210;2023-03-11T11:47:19;21.70;43.80
40257;DHT22;25977;45.462;9.210;2023-03-11T11:49:55;21.70;43.80
40257;DHT22;25977;45.462;9.210;2023-03-11T11:52:30;21.70;43.60
40257;DHT22;25977;45.462;9.210;2023-03-11T11:55:17;21.80;43.90
40257;DHT22;25977;45.462;9.210;2023-03-11T11:57:45;21.80;43.90
40257;DHT22;25977;45.462;9.210;2023-03-11T12:00:24;21.80;44.10
40257;DHT22;25977;45.462;9.210;2023-03-11T12:05:34;21.80;44.00
40257;DHT22;25977;45.462;9.210;2023-03-11T12:08:32;21.80;43.90
40257;DHT22;25977;45.462;9.210;2023-03-11T12:11:10;21.80;44.00
40257;DHT22;25977;45.462;9.210;2023-03-11T12:30:00;21.70;44.40
40257;DHT22;25977;45.462;9.210;2023-03-11T12:32:35;21.70;44.30
40257;DHT22;25977;45.462;9.210;2023-03-11T12:35:13;21.80;44.60
40257;DHT22;25977;45.462;9.210;2023-03-11T12:37:43;21.90;44.30
40257;DHT22;25977;45.462;9.210;2023-03-11T12:40:46;21.90;44.40
40257;DHT22;25977;45.462;9.210;2023-03-11T12:48:45;22.00;44.80
40257;DHT22;25977;45.462;9.210;2023-03-11T12:57:00;22.00;44.20
40257;DHT22;25977;45.462;9.210;2023-03-11T13:08:14;21.90;44.10
40257;DHT22;25977;45.462;9.210;2023-03-11T13:10:50;21.90;44.40
40257;DHT22;25977;45.462;9.210;2023-03-11T13:13:39;22.00;44.00
40257;DHT22;25977;45.462;9.210;2023-03-11T13:18:41;22.00;43.90
40257;DHT22;25977;45.462;9.210;2023-03-11T13:24:14;22.00;44.20
40257;DHT22;25977;45.462;9.210;2023-03-11T13:40:46;22.20;43.80
40257;DHT22;25977;45.462;9.210;2023-03-11T13:43:23;22.20;43.70
40257;DHT22;25977;45.462;9.210;2023-03-11T13:45:53;22.20;43.40
40257;DHT22;25977;45.462;9.210;2023-03-11T13:48:30;22.30;43.70
40257;DHT22;25977;45.462;9.210;2023-03-11T13:51:03;22.40;43.60
40257;DHT22;25977;45.462;9.210;2023-03-11T13:53:34;22.60;43.60
40257;DHT22;25977;45.462;9.210;2023-03-11T13:56:03;22.60;43.70
40257;DHT22;25977;45.462;9.210;2023-03-11T13:58:29;22.60;42.90
40257;DHT22;25977;45.462;9.210;2023-03-11T14:00:59;22.60;43.80
40257;DHT22;25977;45.462;9.210;2023-03-11T14:03:29;22.60;44.20
40257;DHT22;25977;45.462;9.210;2023-03-11T14:08:29;22.50;43.30
40257;DHT22;25977;45.462;9.210;2023-03-11T14:11:13;22.50;43.50
40257;DHT22;25977;45.462;9.210;2023-03-11T14:13:45;22.50;43.60
40257;DHT22;25977;45.462;9.210;2023-03-11T14:16:20;22.40;43.70
40257;DHT22;25977;45.462;9.210;2023-03-11T14:19:00;22.40;44.50
40257;DHT22;25977;45.462;9.210;2023-03-11T14:21:26;22.40;44.20
40257;DHT22;25977;45.462;9.210;2023-03-11T14:23:54;22.40;44.10
40257;DHT22;25977;45.462;9.210;2023-03-11T14:26:28;22.30;44.10
40257;DHT22;25977;45.462;9.210;2023-03-11T14:28:59;22.30;44.50
40257;DHT22;25977;45.462;9.210;2023-03-11T14:31:40;22.30;44.50
40257;DHT22;25977;45.462;9.210;2023-03-11T14:34:15;22.20;44.20
40257;DHT22;25977;45.462;9.210;2023-03-11T14:36:52;22.10;44.30
40257;DHT22;25977;45.462;9.210;2023-03-11T14:42:04;22.00;43.70
40257;DHT22;25977;45.462;9.210;2023-03-11T14:44:33;22.00;42.90
40257;DHT22;25977;45.462;9.210;2023-03-11T14:49:54;21.90;43.40
40257;DHT22;25977;45.462;9.210;2023-03-11T14:52:36;21.90;43.60
40257;DHT22;25977;45.462;9.210;2023-03-11T14:55:06;21.90;43.90
40257;DHT22;25977;45.462;9.210;2023-03-11T14:57:36;21.90;44.10
40257;DHT22;25977;45.462;9.210;2023-03-11T15:00:09;21.90;43.70
40257;DHT22;25977;45.462;9.210;2023-03-11T15:02:42;21.90;43.10
40257;DHT22;25977;45.462;9.210;2023-03-11T15:05:23;21.90;43.30
40257;DHT22;25977;45.462;9.210;2023-03-11T15:07:56;21.90;44.50
40257;DHT22;25977;45.462;9.210;2023-03-11T15:10:23;21.90;44.00
40257;DHT22;25977;45.462;9.210;2023-03-11T15:12:49;21.90;43.80
40257;DHT22;25977;45.462;9.210;2023-03-11T15:15:28;21.80;43.90
40257;DHT22;25977;45.462;9.210;2023-03-11T15:17:56;21.70;43.70
40257;DHT22;25977;45.462;9.210;2023-03-11T15:20:31;21.70;43.80
40257;DHT22;25977;45.462;9.210;2023-03-11T15:22:59;21.60;44.10
40257;DHT22;25977;45.462;9.210;2023-03-11T15:25:27;21.60;44.30
40257;DHT22;25977;45.462;9.210;2023-03-11T15:27:53;21.60;43.80
40257;DHT22;25977;45.462;9.210;2023-03-11T15:30:29;21.60;44.80
40257;DHT22;25977;45.462;9.210;2023-03-11T15:32:56;21.60;43.80
40257;DHT22;25977;45.462;9.210;2023-03-11T15:35:25;21.60;44.00
40257;DHT22;25977;45.462;9.210;2023-03-11T15:38:12;21.60;44.20
40257;DHT22;25977;45.462;9.210;2023-03-11T15:41:00;21.60;44.90
40257;DHT22;25977;45.462;9.210;2023-03-11T15:43:32;21.60;45.20
40257;DHT22;25977;45.462;9.210;2023-03-11T15:46:00;21.60;45.80
40257;DHT22;25977;45.462;9.210;2023-03-11T15:48:27;21.70;46.90
40257;DHT22;25977;45.462;9.210;2023-03-11T15:50:58;21.70;46.20
40257;DHT22;25977;45.462;9.210;2023-03-11T15:53:25;21.70;44.70
40257;DHT22;25977;45.462;9.210;2023-03-11T15:55:53;21.70;45.10
40257;DHT22;25977;45.462;9.210;2023-03-11T15:58:21;21.70;45.90
40257;DHT22;25977;45.462;9.210;2023-03-11T16:00:52;21.60;44.10
40257;DHT22;25977;45.462;9.210;2023-03-11T16:03:18;21.60;44.90
40257;DHT22;25977;45.462;9.210;2023-03-11T16:05:45;21.60;44.60
40257;DHT22;25977;45.462;9.210;2023-03-11T16:08:10;21.60;47.60
40257;DHT22;25977;45.462;9.210;2023-03-11T16:10:36;21.60;47.20
40257;DHT22;25977;45.462;9.210;2023-03-11T16:13:03;21.60;44.30
40257;DHT22;25977;45.462;9.210;2023-03-11T16:15:31;21.60;45.60
40257;DHT22;25977;45.462;9.210;2023-03-11T16:17:59;21.50;44.10
40257;DHT22;25977;45.462;9.210;2023-03-11T16:20:36;21.50;44.90
40257;DHT22;25977;45.462;9.210;2023-03-11T16:23:03;21.50;46.10
40257;DHT22;25977;45.462;9.210;2023-03-11T16:25:35;21.50;44.10
40257;DHT22;25977;45.462;9.210;2023-03-11T16:28:02;21.50;44.10
40257;DHT22;25977;45.462;9.210;2023-03-11T16:30:30;21.40;44.00
40257;DHT22;25977;45.462;9.210;2023-03-11T16:32:56;21.40;44.60
40257;DHT22;25977;45.462;9.210;2023-03-11T16:35:22;21.40;43.70
40257;DHT22;25977;45.462;9.210;2023-03-11T16:37:48;21.40;44.00
40257;DHT22;25977;45.462;9.210;2023-03-11T16:40:17;21.40;43.90
40257;DHT22;25977;45.462;9.210;2023-03-11T16:42:43;21.40;43.70
40257;DHT22;25977;45.462;9.210;2023-03-11T16:45:11;21.30;44.80
40257;DHT22;25977;45.462;9.210;2023-03-11T16:47:36;21.40;45.30
40257;DHT22;25977;45.462;9.210;2023-03-11T16:50:03;21.30;43.70
40257;DHT22;25977;45.462;9.210;2023-03-11T16:52:29;21.20;43.40
40257;DHT22;25977;45.462;9.210;2023-03-11T16:54:55;21.30;43.70
40257;DHT22;25977;45.462;9.210;2023-03-11T16:57:21;21.20;44.50
40257;DHT22;25977;45.462;9.210;2023-03-11T16:59:47;21.20;44.20
40257;DHT22;25977;45.462;9.210;2023-03-11T17:02:13;21.20;43.90
40257;DHT22;25977;45.462;9.210;2023-03-11T17:04:39;21.20;44.00
40257;DHT22;25977;45.462;9.210;2023-03-11T17:07:06;21.20;44.30
40257;DHT22;25977;45.462;9.210;2023-03-11T17:09:32;21.10;44.00
40257;DHT22;25977;45.462;9.210;2023-03-11T17:11:58;21.10;44.50
40257;DHT22;25977;45.462;9.210;2023-03-11T17:14:24;21.10;44.00
40257;DHT22;25977;45.462;9.210;2023-03-11T17:16:50;21.10;44.90
40257;DHT22;25977;45.462;9.210;2023-03-11T17:19:16;21.10;44.90
40257;DHT22;25977;45.462;9.210;2023-03-11T17:21:41;21.10;43.80
40257;DHT22;25977;45.462;9.210;2023-03-11T17:24:09;21.10;44.40
40257;DHT22;25977;45.462;9.210;2023-03-11T17:26:35;21.00;44.80
40257;DHT22;25977;45.462;9.210;2023-03-11T17:29:00;21.00;44.90
40257;DHT22;25977;45.462;9.210;2023-03-11T17:31:26;21.00;44.60